sensor_id;sensor_type;location;lat;lon;timestamp;pressure;altitude;pressure_sealevel;temperature;humidity
41706;BME280;27385;51.096;17.190;2022-09-09T00:00:52;99893.27;;;16.18;90.98
41706;BME280;27385;51.096;17.190;2022-09-09T00:03:40;99894.53;;;16.14;90.81
41706;BME280;27385;51.096;17.190;2022-09-09T00:06:23;99902.98;;;16.09;90.68
41706;BME280;27385;51.096;17.190;2022-09-09T00:09:04;99902.56;;;16.05;91.08
41706;BME280;27385;51.096;17.190;2022-09-09T00:11:43;99903.55;;;16.02;91.08
41706;BME280;27385;51.096;17.190;2022-09-09T00:14:23;99907.10;;;15.99;91.27
41706;BME280;27385;51.096;17.190;2022-09-09T00:17:02;99908.31;;;15.96;91.30
41706;BME280;27385;51.096;17.190;2022-09-09T00:19:41;99907.83;;;15.93;91.35
41706;BME280;27385;51.096;17.190;2022-09-09T00:22:18;99903.30;;;15.89;91.54
41706;BME280;27385;51.096;17.190;2022-09-09T00:24:53;99902.56;;;15.87;91.47
41706;BME280;27385;51.096;17.190;2022-09-09T00:27:31;99905.90;;;15.84;91.40
41706;BME280;27385;51.096;17.190;2022-09-09T00:30:18;99905.52;;;15.82;91.40
41706;BME280;27385;51.096;17.190;2022-09-09T00:32:54;99907.83;;;15.79;91.31
41706;BME280;27385;51.096;17.190;2022-09-09T00:35:32;99903.40;;;15.76;91.29
41706;BME280;27385;51.096;17.190;2022-09-09T00:38:12;99900.20;;;15.73;91.25
41706;BME280;27385;51.096;17.190;2022-09-09T00:40:50;99901.46;;;15.68;91.06
41706;BME280;27385;51.096;17.190;2022-09-09T00:43:31;99901.95;;;15.64;91.09
41706;BME280;27385;51.096;17.190;2022-09-09T00:46:36;99902.40;;;15.59;90.96
41706;BME280;27385;51.096;17.190;2022-09-09T00:49:18;99905.65;;;15.55;90.84
41706;BME280;27385;51.096;17.190;2022-09-09T00:52:02;99904.29;;;15.52;90.88
41706;BME280;27385;51.096;17.190;2022-09-09T00:54:44;99907.95;;;15.49;90.78
41706;BME280;27385;51.096;17.190;2022-09-09T00:57:25;99904.84;;;15.45;90.92
41706;BME280;27385;51.096;17.190;2022-09-09T01:02:56;99902.96;;;15.38;90.77
41706;BME280;27385;51.096;17.190;2022-09-09T01:05:39;99909.42;;;15.34;90.69
41706;BME280;27385;51.096;17.190;2022-09-09T01:08:24;99909.09;;;15.30;90.69
41706;BME280;27385;51.096;17.190;2022-09-09T01:10:59;99910.59;;;15.24;90.61
41706;BME280;27385;51.096;17.190;2022-09-09T01:13:34;99907.34;;;15.22;90.54
41706;BME280;27385;51.096;17.190;2022-09-09T01:16:11;99908.94;;;15.19;90.51
41706;BME280;27385;51.096;17.190;2022-09-09T01:18:46;99910.65;;;15.15;90.34
41706;BME280;27385;51.096;17.190;2022-09-09T01:21:25;99916.50;;;15.11;90.28
41706;BME280;27385;51.096;17.190;2022-09-09T01:24:15;99919.13;;;15.05;90.13
41706;BME280;27385;51.096;17.190;2022-09-09T01:26:53;99922.41;;;15.01;90.23
41706;BME280;27385;51.096;17.190;2022-09-09T01:29:28;99919.22;;;14.96;90.18
41706;BME280;27385;51.096;17.190;2022-09-09T01:32:01;99923.52;;;14.91;89.90
41706;BME280;27385;51.096;17.190;2022-09-09T01:34:38;99926.16;;;14.85;89.98
41706;BME280;27385;51.096;17.190;2022-09-09T01:37:13;99927.46;;;14.77;89.89
41706;BME280;27385;51.096;17.190;2022-09-09T01:39:46;99930.60;;;14.71;89.93
41706;BME280;27385;51.096;17.190;2022-09-09T01:42:19;99931.92;;;14.66;89.96
41706;BME280;27385;51.096;17.190;2022-09-09T01:44:51;99932.52;;;14.60;89.85
41706;BME280;27385;51.096;17.190;2022-09-09T01:47:24;99937.84;;;14.56;89.76
41706;BME280;27385;51.096;17.190;2022-09-09T01:49:57;99934.61;;;14.54;89.79
41706;BME280;27385;51.096;17.190;2022-09-09T01:52:30;99937.17;;;14.50;89.83
41706;BME280;27385;51.096;17.190;2022-09-09T01:55:02;99937.53;;;14.47;89.70
41706;BME280;27385;51.096;17.190;2022-09-09T01:57:36;99939.48;;;14.43;89.57
41706;BME280;27385;51.096;17.190;2022-09-09T02:00:12;99936.54;;;14.38;89.48
41706;BME280;27385;51.096;17.190;2022-09-09T02:02:52;99939.56;;;14.34;89.54
41706;BME280;27385;51.096;17.190;2022-09-09T02:05:34;99942.81;;;14.29;89.49
41706;BME280;27385;51.096;17.190;2022-09-09T02:08:10;99943.15;;;14.26;89.59
41706;BME280;27385;51.096;17.190;2022-09-09T02:10:46;99945.14;;;14.23;89.59
41706;BME280;27385;51.096;17.190;2022-09-09T02:13:21;99946.12;;;14.20;89.50
41706;BME280;27385;51.096;17.190;2022-09-09T02:15:57;99950.91;;;14.18;89.60
41706;BME280;27385;51.096;17.190;2022-09-09T02:18:34;99950.19;;;14.14;89.48
41706;BME280;27385;51.096;17.190;2022-09-09T02:21:07;99959.29;;;14.10;89.53
41706;BME280;27385;51.096;17.190;2022-09-09T02:23:41;99958.46;;;14.08;89.60
41706;BME280;27385;51.096;17.190;2022-09-09T02:26:16;99963.06;;;14.05;89.57
41706;BME280;27385;51.096;17.190;2022-09-09T02:28:52;99960.09;;;14.02;89.70
41706;BME280;27385;51.096;17.190;2022-09-09T02:31:26;99959.73;;;13.98;89.72
41706;BME280;27385;51.096;17.190;2022-09-09T02:34:01;99958.86;;;13.96;89.75
41706;BME280;27385;51.096;17.190;2022-09-09T02:36:35;99956.37;;;13.92;89.63
41706;BME280;27385;51.096;17.190;2022-09-09T02:39:09;99955.34;;;13.90;89.68
41706;BME280;27385;51.096;17.190;2022-09-09T02:41:42;99957.98;;;13.86;89.72
41706;BME280;27385;51.096;17.190;2022-09-09T02:44:15;99965.08;;;13.82;89.74
41706;BME280;27385;51.096;17.190;2022-09-09T02:47:00;99965.48;;;13.79;89.46
41706;BME280;27385;51.096;17.190;2022-09-09T02:49:43;99963.44;;;13.76;89.62
41706;BME280;27385;51.096;17.190;2022-09-09T02:52:23;99967.41;;;13.73;89.67
41706;BME280;27385;51.096;17.190;2022-09-09T02:55:03;99967.50;;;13.67;89.65
41706;BME280;27385;51.096;17.190;2022-09-09T02:57:37;99967.85;;;13.64;89.62
41706;BME280;27385;51.096;17.190;2022-09-09T03:00:12;99964.89;;;13.62;89.71
41706;BME280;27385;51.096;17.190;2022-09-09T03:02:44;99968.03;;;13.61;89.68
41706;BME280;27385;51.096;17.190;2022-09-09T03:05:16;99970.33;;;13.58;89.52
41706;BME280;27385;51.096;17.190;2022-09-09T03:07:48;99969.41;;;13.54;89.59
41706;BME280;27385;51.096;17.190;2022-09-09T03:10:20;99974.09;;;13.50;89.60
41706;BME280;27385;51.096;17.190;2022-09-09T03:12:53;99973.57;;;13.46;89.74
41706;BME280;27385;51.096;17.190;2022-09-09T03:15:25;99973.00;;;13.44;89.53
41706;BME280;27385;51.096;17.190;2022-09-09T03:17:59;99978.23;;;13.41;89.50
41706;BME280;27385;51.096;17.190;2022-09-09T03:20:31;99982.52;;;13.38;89.55
41706;BME280;27385;51.096;17.190;2022-09-09T03:23:03;99990.55;;;13.37;89.62
41706;BME280;27385;51.096;17.190;2022-09-09T03:25:34;99989.95;;;13.35;89.50
41706;BME280;27385;51.096;17.190;2022-09-09T03:28:06;99991.30;;;13.32;89.77
41706;BME280;27385;51.096;17.190;2022-09-09T03:30:39;99990.84;;;13.28;89.52
41706;BME280;27385;51.096;17.190;2022-09-09T03:33:12;99987.98;;;13.26;89.67
41706;BME280;27385;51.096;17.190;2022-09-09T03:35:47;99983.06;;;13.25;89.63
41706;BME280;27385;51.096;17.190;2022-09-09T03:38:19;99985.56;;;13.23;89.70
41706;BME280;27385;51.096;17.190;2022-09-09T03:40:55;99982.27;;;13.21;89.67
41706;BME280;27385;51.096;17.190;2022-09-09T03:43:27;99990.48;;;13.16;89.56
41706;BME280;27385;51.096;17.190;2022-09-09T03:46:01;99992.19;;;13.11;89.69
41706;BME280;27385;51.096;17.190;2022-09-09T03:48:33;99994.26;;;13.07;89.73
41706;BME280;27385;51.096;17.190;2022-09-09T03:51:05;99987.78;;;13.06;89.87
41706;BME280;27385;51.096;17.190;2022-09-09T03:53:37;99988.19;;;13.03;89.69
41706;BME280;27385;51.096;17.190;2022-09-09T03:56:09;99991.73;;;12.99;89.59
41706;BME280;27385;51.096;17.190;2022-09-09T03:58:41;99992.84;;;12.95;89.78
41706;BME280;27385;51.096;17.190;2022-09-09T04:01:14;99991.56;;;12.94;89.76
41706;BME280;27385;51.096;17.190;2022-09-09T04:03:47;99995.98;;;12.92;89.57
41706;BME280;27385;51.096;17.190;2022-09-09T04:06:20;99997.48;;;12.88;89.60
41706;BME280;27385;51.096;17.190;2022-09-09T04:08:51;99998.54;;;12.86;89.76
41706;BME280;27385;51.096;17.190;2022-09-09T04:11:23;100002.95;;;12.84;89.77
41706;BME280;27385;51.096;17.190;2022-09-09T04:13:56;100003.52;;;12.83;89.66
41706;BME280;27385;51.096;17.190;2022-09-09T04:16:28;100004.69;;;12.81;89.55
41706;BME280;27385;51.096;17.190;2022-09-09T04:19:00;100004.35;;;12.79;89.67
41706;BME280;27385;51.096;17.190;2022-09-09T04:21:36;100001.55;;;12.78;89.78
41706;BME280;27385;51.096;17.190;2022-09-09T04:24:10;100004.30;;;12.76;89.71
41706;BME280;27385;51.096;17.190;2022-09-09T04:26:41;100010.09;;;12.76;89.80
41706;BME280;27385;51.096;17.190;2022-09-09T04:29:13;100012.89;;;12.76;89.84
41706;BME280;27385;51.096;17.190;2022-09-09T04:31:46;100013.20;;;12.76;89.80
41706;BME280;27385;51.096;17.190;2022-09-09T04:34:18;100013.70;;;12.76;90.03
41706;BME280;27385;51.096;17.190;2022-09-09T04:36:50;100013.58;;;12.76;90.07
41706;BME280;27385;51.096;17.190;2022-09-09T04:39:22;100018.55;;;12.76;90.13
41706;BME280;27385;51.096;17.190;2022-09-09T04:41:54;100017.87;;;12.74;90.24
41706;BME280;27385;51.096;17.190;2022-09-09T04:44:26;100012.66;;;12.72;90.12
41706;BME280;27385;51.096;17.190;2022-09-09T04:46:57;100013.73;;;12.70;90.30
41706;BME280;27385;51.096;17.190;2022-09-09T04:49:29;100011.11;;;12.69;90.17
41706;BME280;27385;51.096;17.190;2022-09-09T04:52:03;100015.79;;;12.68;90.41
41706;BME280;27385;51.096;17.190;2022-09-09T04:54:35;100015.38;;;12.68;90.52
41706;BME280;27385;51.096;17.190;2022-09-09T04:57:06;100014.02;;;12.69;90.53
41706;BME280;27385;51.096;17.190;2022-09-09T04:59:38;100019.44;;;12.72;90.73
41706;BME280;27385;51.096;17.190;2022-09-09T05:02:10;100018.84;;;12.74;90.83
41706;BME280;27385;51.096;17.190;2022-09-09T05:04:43;100019.41;;;12.76;91.14
41706;BME280;27385;51.096;17.190;2022-09-09T05:07:17;100014.34;;;12.80;91.10
41706;BME280;27385;51.096;17.190;2022-09-09T05:09:49;100018.54;;;12.83;91.32
41706;BME280;27385;51.096;17.190;2022-09-09T05:12:21;100019.54;;;12.88;91.11
41706;BME280;27385;51.096;17.190;2022-09-09T05:14:53;100027.67;;;12.91;91.40
41706;BME280;27385;51.096;17.190;2022-09-09T05:17:25;100030.17;;;12.94;91.49
41706;BME280;27385;51.096;17.190;2022-09-09T05:19:57;100030.86;;;12.98;91.38
41706;BME280;27385;51.096;17.190;2022-09-09T05:22:29;100032.94;;;13.03;91.50
41706;BME280;27385;51.096;17.190;2022-09-09T05:25:01;100033.50;;;13.08;91.53
41706;BME280;27385;51.096;17.190;2022-09-09T05:27:36;100030.05;;;13.13;91.71
41706;BME280;27385;51.096;17.190;2022-09-09T05:30:10;100036.15;;;13.19;91.93
41706;BME280;27385;51.096;17.190;2022-09-09T05:32:41;100037.10;;;13.24;92.10
41706;BME280;27385;51.096;17.190;2022-09-09T05:35:13;100036.46;;;13.28;92.10
41706;BME280;27385;51.096;17.190;2022-09-09T05:37:45;100037.09;;;13.33;92.32
41706;BME280;27385;51.096;17.190;2022-09-09T05:40:18;100035.08;;;13.38;92.47
41706;BME280;27385;51.096;17.190;2022-09-09T05:42:53;100039.12;;;13.44;92.62
41706;BME280;27385;51.096;17.190;2022-09-09T05:45:24;100040.98;;;13.50;93.01
41706;BME280;27385;51.096;17.190;2022-09-09T05:47:56;100042.48;;;13.55;93.06
41706;BME280;27385;51.096;17.190;2022-09-09T05:50:29;100047.39;;;13.61;93.69
41706;BME280;27385;51.096;17.190;2022-09-09T05:53:01;100044.40;;;13.66;93.91
41706;BME280;27385;51.096;17.190;2022-09-09T05:55:34;100045.45;;;13.71;93.74
41706;BME280;27385;51.096;17.190;2022-09-09T05:58:05;100045.05;;;13.77;93.74
41706;BME280;27385;51.096;17.190;2022-09-09T06:00:37;100039.46;;;13.83;94.23
41706;BME280;27385;51.096;17.190;2022-09-09T06:03:11;100040.75;;;13.89;94.43
41706;BME280;27385;51.096;17.190;2022-09-09T06:05:43;100044.23;;;13.95;94.83
41706;BME280;27385;51.096;17.190;2022-09-09T06:08:15;100050.12;;;14.03;95.00
41706;BME280;27385;51.096;17.190;2022-09-09T06:10:46;100055.17;;;14.08;95.32
41706;BME280;27385;51.096;17.190;2022-09-09T06:13:18;100053.45;;;14.14;95.49
41706;BME280;27385;51.096;17.190;2022-09-09T06:15:53;100052.14;;;14.20;95.69
41706;BME280;27385;51.096;17.190;2022-09-09T06:18:26;100045.67;;;14.28;95.98
41706;BME280;27385;51.096;17.190;2022-09-09T06:20:59;100042.79;;;14.35;95.88
41706;BME280;27385;51.096;17.190;2022-09-09T06:23:32;100037.58;;;14.42;96.04
41706;BME280;27385;51.096;17.190;2022-09-09T06:26:07;100034.46;;;14.50;96.12
41706;BME280;27385;51.096;17.190;2022-09-09T06:28:41;100039.38;;;14.57;96.27
41706;BME280;27385;51.096;17.190;2022-09-09T06:31:15;100043.39;;;14.65;96.24
41706;BME280;27385;51.096;17.190;2022-09-09T06:33:48;100037.05;;;14.73;96.62
41706;BME280;27385;51.096;17.190;2022-09-09T06:36:21;100033.82;;;14.82;96.96
41706;BME280;27385;51.096;17.190;2022-09-09T06:38:55;100035.14;;;14.89;96.71
41706;BME280;27385;51.096;17.190;2022-09-09T06:41:28;100039.31;;;14.96;96.99
41706;BME280;27385;51.096;17.190;2022-09-09T06:44:00;100044.26;;;15.06;97.32
41706;BME280;27385;51.096;17.190;2022-09-09T06:46:33;100047.77;;;15.14;97.55
41706;BME280;27385;51.096;17.190;2022-09-09T06:49:05;100047.42;;;15.25;97.98
41706;BME280;27385;51.096;17.190;2022-09-09T06:51:37;100050.71;;;15.38;98.39
41706;BME280;27385;51.096;17.190;2022-09-09T06:54:13;100049.32;;;15.49;98.12
41706;BME280;27385;51.096;17.190;2022-09-09T06:56:44;100050.00;;;15.56;97.72
41706;BME280;27385;51.096;17.190;2022-09-09T06:59:16;100047.45;;;15.64;98.21
41706;BME280;27385;51.096;17.190;2022-09-09T07:01:47;100048.84;;;15.75;98.14
41706;BME280;27385;51.096;17.190;2022-09-09T07:04:21;100046.27;;;15.86;98.11
41706;BME280;27385;51.096;17.190;2022-09-09T07:06:53;100048.81;;;15.98;98.29
41706;BME280;27385;51.096;17.190;2022-09-09T07:09:24;100051.20;;;16.10;97.88
41706;BME280;27385;51.096;17.190;2022-09-09T07:11:57;100054.56;;;16.19;97.94
41706;BME280;27385;51.096;17.190;2022-09-09T07:14:29;100051.42;;;16.31;97.80
41706;BME280;27385;51.096;17.190;2022-09-09T07:17:01;100055.67;;;16.43;97.52
41706;BME280;27385;51.096;17.190;2022-09-09T07:19:32;100058.13;;;16.53;97.43
41706;BME280;27385;51.096;17.190;2022-09-09T07:22:04;100058.35;;;16.65;97.45
41706;BME280;27385;51.096;17.190;2022-09-09T07:24:36;100057.49;;;16.74;96.91
41706;BME280;27385;51.096;17.190;2022-09-09T07:27:08;100063.33;;;16.83;97.06
41706;BME280;27385;51.096;17.190;2022-09-09T07:29:39;100066.20;;;16.92;96.49
41706;BME280;27385;51.096;17.190;2022-09-09T07:32:10;100061.52;;;17.00;96.70
41706;BME280;27385;51.096;17.190;2022-09-09T07:34:42;100057.64;;;17.08;96.87
41706;BME280;27385;51.096;17.190;2022-09-09T07:37:14;100053.81;;;17.16;96.58
41706;BME280;27385;51.096;17.190;2022-09-09T07:39:45;100049.14;;;17.25;97.01
41706;BME280;27385;51.096;17.190;2022-09-09T07:42:17;100050.48;;;17.35;96.35
41706;BME280;27385;51.096;17.190;2022-09-09T07:44:49;100055.92;;;17.42;95.53
41706;BME280;27385;51.096;17.190;2022-09-09T07:47:24;100063.75;;;17.50;95.09
41706;BME280;27385;51.096;17.190;2022-09-09T07:49:56;100064.06;;;17.59;95.65
41706;BME280;27385;51.096;17.190;2022-09-09T07:52:29;100071.66;;;17.63;95.06
41706;BME280;27385;51.096;17.190;2022-09-09T07:55:00;100077.64;;;17.65;95.14
41706;BME280;27385;51.096;17.190;2022-09-09T07:57:34;100081.63;;;17.70;95.07
41706;BME280;27385;51.096;17.190;2022-09-09T08:00:07;100077.48;;;17.78;95.11
41706;BME280;27385;51.096;17.190;2022-09-09T08:02:40;100078.55;;;17.87;95.03
41706;BME280;27385;51.096;17.190;2022-09-09T08:05:12;100082.09;;;17.97;95.20
41706;BME280;27385;51.096;17.190;2022-09-09T08:07:44;100081.38;;;18.05;94.88
41706;BME280;27385;51.096;17.190;2022-09-09T08:10:17;100078.00;;;18.18;95.15
41706;BME280;27385;51.096;17.190;2022-09-09T08:12:48;100076.27;;;18.29;94.71
41706;BME280;27385;51.096;17.190;2022-09-09T08:15:21;100070.50;;;18.35;93.90
41706;BME280;27385;51.096;17.190;2022-09-09T08:17:53;100072.14;;;18.43;93.52
41706;BME280;27385;51.096;17.190;2022-09-09T08:20:25;100072.64;;;18.52;92.32
41706;BME280;27385;51.096;17.190;2022-09-09T08:22:58;100070.76;;;18.56;91.36
41706;BME280;27385;51.096;17.190;2022-09-09T08:25:31;100070.50;;;18.61;90.28
41706;BME280;27385;51.096;17.190;2022-09-09T08:28:04;100072.32;;;18.62;90.64
41706;BME280;27385;51.096;17.190;2022-09-09T08:30:36;100071.74;;;18.66;91.33
41706;BME280;27385;51.096;17.190;2022-09-09T08:33:08;100068.45;;;18.73;90.95
41706;BME280;27385;51.096;17.190;2022-09-09T08:35:40;100064.70;;;18.81;91.02
41706;BME280;27385;51.096;17.190;2022-09-09T08:38:21;100069.39;;;18.91;89.69
41706;BME280;27385;51.096;17.190;2022-09-09T08:40:56;100069.79;;;18.96;90.02
41706;BME280;27385;51.096;17.190;2022-09-09T08:43:36;100065.84;;;19.00;88.59
41706;BME280;27385;51.096;17.190;2022-09-09T08:46:12;100065.52;;;19.05;88.60
41706;BME280;27385;51.096;17.190;2022-09-09T08:48:52;100063.52;;;19.09;87.44
41706;BME280;27385;51.096;17.190;2022-09-09T08:51:29;100064.30;;;19.15;87.73
41706;BME280;27385;51.096;17.190;2022-09-09T08:54:04;100075.88;;;19.17;86.82
41706;BME280;27385;51.096;17.190;2022-09-09T08:56:37;100074.34;;;19.22;87.01
41706;BME280;27385;51.096;17.190;2022-09-09T08:59:11;100077.27;;;19.31;87.23
41706;BME280;27385;51.096;17.190;2022-09-09T09:01:56;100078.77;;;19.37;85.89
41706;BME280;27385;51.096;17.190;2022-09-09T09:04:40;100076.29;;;19.38;85.21
41706;BME280;27385;51.096;17.190;2022-09-09T09:07:21;100081.21;;;19.41;85.45
41706;BME280;27385;51.096;17.190;2022-09-09T09:10:05;100081.80;;;19.48;84.81
41706;BME280;27385;51.096;17.190;2022-09-09T09:12:43;100083.26;;;19.55;84.06
41706;BME280;27385;51.096;17.190;2022-09-09T09:15:21;100080.05;;;19.58;83.00
41706;BME280;27385;51.096;17.190;2022-09-09T09:17:54;100081.15;;;19.60;83.07
41706;BME280;27385;51.096;17.190;2022-09-09T09:20:34;100085.04;;;19.66;83.27
41706;BME280;27385;51.096;17.190;2022-09-09T09:23:19;100084.05;;;19.72;82.42
41706;BME280;27385;51.096;17.190;2022-09-09T09:25:55;100077.46;;;19.78;82.38
41706;BME280;27385;51.096;17.190;2022-09-09T09:28:31;100076.49;;;19.85;82.18
41706;BME280;27385;51.096;17.190;2022-09-09T09:31:05;100078.28;;;19.96;82.56
41706;BME280;27385;51.096;17.190;2022-09-09T09:33:45;100079.18;;;20.04;80.62
41706;BME280;27385;51.096;17.190;2022-09-09T09:36:16;100083.55;;;20.09;80.96
41706;BME280;27385;51.096;17.190;2022-09-09T09:38:59;100081.02;;;20.09;79.88
41706;BME280;27385;51.096;17.190;2022-09-09T09:41:34;100084.77;;;20.14;80.03
41706;BME280;27385;51.096;17.190;2022-09-09T09:44:19;100086.55;;;20.19;78.88
41706;BME280;27385;51.096;17.190;2022-09-09T09:47:04;100083.67;;;20.21;78.13
41706;BME280;27385;51.096;17.190;2022-09-09T09:49:36;100078.89;;;20.20;77.49
41706;BME280;27385;51.096;17.190;2022-09-09T09:52:13;100082.91;;;20.19;78.38
41706;BME280;27385;51.096;17.190;2022-09-09T09:54:48;100080.65;;;20.20;78.30
41706;BME280;27385;51.096;17.190;2022-09-09T09:57:26;100082.30;;;20.19;77.19
41706;BME280;27385;51.096;17.190;2022-09-09T10:00:15;100081.95;;;20.22;77.05
41706;BME280;27385;51.096;17.190;2022-09-09T10:02:47;100083.82;;;20.27;76.80
41706;BME280;27385;51.096;17.190;2022-09-09T10:05:24;100085.80;;;20.32;77.21
41706;BME280;27385;51.096;17.190;2022-09-09T10:08:10;100080.76;;;20.38;76.56
41706;BME280;27385;51.096;17.190;2022-09-09T10:13:50;100083.89;;;20.51;76.50
41706;BME280;27385;51.096;17.190;2022-09-09T10:16:37;100083.15;;;20.61;76.58
41706;BME280;27385;51.096;17.190;2022-09-09T10:19:15;100081.20;;;20.71;76.36
41706;BME280;27385;51.096;17.190;2022-09-09T10:22:01;100080.63;;;20.77;75.28
41706;BME280;27385;51.096;17.190;2022-09-09T10:24:50;100079.46;;;20.88;74.26
41706;BME280;27385;51.096;17.190;2022-09-09T10:27:32;100081.20;;;20.97;74.10
41706;BME280;27385;51.096;17.190;2022-09-09T10:30:16;100083.75;;;21.04;74.13
41706;BME280;27385;51.096;17.190;2022-09-09T10:32:53;100089.04;;;21.08;73.59
41706;BME280;27385;51.096;17.190;2022-09-09T10:35:31;100085.42;;;21.10;72.39
41706;BME280;27385;51.096;17.190;2022-09-09T10:38:18;100076.89;;;21.13;72.71
41706;BME280;27385;51.096;17.190;2022-09-09T10:41:13;100071.34;;;21.18;72.61
41706;BME280;27385;51.096;17.190;2022-09-09T10:44:11;100067.73;;;21.25;72.28
41706;BME280;27385;51.096;17.190;2022-09-09T10:46:57;100068.33;;;21.32;71.26
41706;BME280;27385;51.096;17.190;2022-09-09T10:50:01;100072.88;;;21.39;70.74
41706;BME280;27385;51.096;17.190;2022-09-09T10:52:44;100073.15;;;21.47;70.15
41706;BME280;27385;51.096;17.190;2022-09-09T10:55:23;100069.11;;;21.50;69.13
41706;BME280;27385;51.096;17.190;2022-09-09T10:57:59;100067.93;;;21.48;69.01
41706;BME280;27385;51.096;17.190;2022-09-09T11:00:41;100061.39;;;21.49;68.94
41706;BME280;27385;51.096;17.190;2022-09-09T11:03:18;100063.73;;;21.50;68.93
41706;BME280;27385;51.096;17.190;2022-09-09T11:05:55;100064.77;;;21.53;68.90
41706;BME280;27385;51.096;17.190;2022-09-09T11:08:30;100065.60;;;21.57;68.32
41706;BME280;27385;51.096;17.190;2022-09-09T11:11:06;100070.77;;;21.60;68.03
41706;BME280;27385;51.096;17.190;2022-09-09T11:13:46;100065.71;;;21.65;67.57
41706;BME280;27385;51.096;17.190;2022-09-09T11:16:27;100065.85;;;21.70;67.72
41706;BME280;27385;51.096;17.190;2022-09-09T11:19:04;100067.45;;;21.77;67.40
41706;BME280;27385;51.096;17.190;2022-09-09T11:21:45;100064.73;;;21.84;66.78
41706;BME280;27385;51.096;17.190;2022-09-09T11:24:20;100070.88;;;21.86;66.23
41706;BME280;27385;51.096;17.190;2022-09-09T11:26:57;100066.75;;;21.86;65.95
41706;BME280;27385;51.096;17.190;2022-09-09T11:29:47;100074.61;;;21.89;66.20
41706;BME280;27385;51.096;17.190;2022-09-09T11:32:43;100074.38;;;21.97;66.22
41706;BME280;27385;51.096;17.190;2022-09-09T11:35:33;100071.86;;;22.05;65.24
41706;BME280;27385;51.096;17.190;2022-09-09T11:38:21;100066.76;;;22.06;64.57
41706;BME280;27385;51.096;17.190;2022-09-09T11:41:02;100066.70;;;22.07;64.15
41706;BME280;27385;51.096;17.190;2022-09-09T11:43:41;100066.64;;;22.10;64.24
41706;BME280;27385;51.096;17.190;2022-09-09T11:46:15;100062.50;;;22.17;64.35
41706;BME280;27385;51.096;17.190;2022-09-09T11:49:00;100058.92;;;22.23;64.66
41706;BME280;27385;51.096;17.190;2022-09-09T11:51:33;100057.61;;;22.29;64.02
41706;BME280;27385;51.096;17.190;2022-09-09T11:54:29;100061.58;;;22.38;63.58
41706;BME280;27385;51.096;17.190;2022-09-09T11:57:03;100066.55;;;22.44;63.17
41706;BME280;27385;51.096;17.190;2022-09-09T11:59:35;100065.39;;;22.49;63.49
41706;BME280;27385;51.096;17.190;2022-09-09T12:02:14;100064.91;;;22.54;62.85
41706;BME280;27385;51.096;17.190;2022-09-09T12:04:54;100065.23;;;22.58;62.80
41706;BME280;27385;51.096;17.190;2022-09-09T12:07:33;100067.86;;;22.63;62.54
41706;BME280;27385;51.096;17.190;2022-09-09T12:10:20;100064.73;;;22.65;62.16
41706;BME280;27385;51.096;17.190;2022-09-09T12:12:53;100063.89;;;22.68;62.23
41706;BME280;27385;51.096;17.190;2022-09-09T12:15:28;100065.44;;;22.73;62.11
41706;BME280;27385;51.096;17.190;2022-09-09T12:18:01;100059.73;;;22.81;61.96
41706;BME280;27385;51.096;17.190;2022-09-09T12:20:37;100058.10;;;22.84;61.42
41706;BME280;27385;51.096;17.190;2022-09-09T12:23:17;100058.59;;;22.88;61.21
41706;BME280;27385;51.096;17.190;2022-09-09T12:26:03;100055.13;;;22.94;60.27
41706;BME280;27385;51.096;17.190;2022-09-09T12:28:57;100051.26;;;22.96;60.03
41706;BME280;27385;51.096;17.190;2022-09-09T12:31:38;100048.80;;;23.04;60.13
41706;BME280;27385;51.096;17.190;2022-09-09T12:34:17;100050.48;;;23.08;60.18
41706;BME280;27385;51.096;17.190;2022-09-09T12:36:57;100045.63;;;23.14;59.92
41706;BME280;27385;51.096;17.190;2022-09-09T12:39:34;100045.92;;;23.16;59.77
41706;BME280;27385;51.096;17.190;2022-09-09T12:42:15;100053.10;;;23.16;59.10
41706;BME280;27385;51.096;17.190;2022-09-09T12:44:54;100052.88;;;23.14;58.14
41706;BME280;27385;51.096;17.190;2022-09-09T12:47:33;100046.58;;;23.06;57.67
41706;BME280;27385;51.096;17.190;2022-09-09T12:50:17;100049.77;;;23.06;58.60
41706;BME280;27385;51.096;17.190;2022-09-09T12:52:52;100053.30;;;23.10;58.66
41706;BME280;27385;51.096;17.190;2022-09-09T12:55:27;100062.59;;;23.16;58.60
41706;BME280;27385;51.096;17.190;2022-09-09T12:58:01;100070.64;;;23.18;58.27
41706;BME280;27385;51.096;17.190;2022-09-09T13:00:35;100073.65;;;23.21;58.58
41706;BME280;27385;51.096;17.190;2022-09-09T13:03:18;100063.39;;;23.21;58.55
41706;BME280;27385;51.096;17.190;2022-09-09T13:05:51;100048.84;;;23.19;57.89
41706;BME280;27385;51.096;17.190;2022-09-09T13:08:25;100046.30;;;23.13;57.17
41706;BME280;27385;51.096;17.190;2022-09-09T13:10:59;100053.06;;;23.11;57.18
41706;BME280;27385;51.096;17.190;2022-09-09T13:13:36;100058.27;;;23.10;57.26
41706;BME280;27385;51.096;17.190;2022-09-09T13:16:22;100053.00;;;23.07;56.94
41706;BME280;27385;51.096;17.190;2022-09-09T13:18:54;100049.09;;;23.02;56.21
41706;BME280;27385;51.096;17.190;2022-09-09T13:21:35;100044.53;;;22.96;56.60
41706;BME280;27385;51.096;17.190;2022-09-09T13:24:24;100040.70;;;22.96;57.02
41706;BME280;27385;51.096;17.190;2022-09-09T13:26:59;100033.38;;;23.00;56.70
41706;BME280;27385;51.096;17.190;2022-09-09T13:29:33;100028.77;;;23.02;56.96
41706;BME280;27385;51.096;17.190;2022-09-09T13:32:15;100028.86;;;23.08;57.27
41706;BME280;27385;51.096;17.190;2022-09-09T13:34:54;100022.35;;;23.14;56.98